Braidwood, Illinois
Current Conditions -  °F | °C
As of 10:35 AM on Monday 26 Jan 2015 (Local Time) from KC09 Reporting Station
Overcast Overcast  
Wind Chill: 17°   Ceiling: 7500
Heat Index: 23°   Visibility: 10mi
Dew Point: 20°   Wind: 5mph
Humidity: 87%   Direction: 230°SW
Pressure: 29.95"   Gusts: NA
Location:  41.27°N, 88.21°W
Report Text: KC09 261635Z AUTO 23004KT 10SM SCT065 OVC075 M05/M07 A2995 RMK AO2 T10491068
Loading
Personal Weather Stations






























Interactive Weather Map New forecast layout! Learn more

10-Day Weather Forecast

Advertisements
Track Severe Weather on mobile